sensor_id;sensor_type;location;lat;lon;timestamp;P1;durP1;ratioP1;P2;durP2;ratioP2
4422;SDS011;2224;49.814;8.650;2023-05-10T00:02:17;2.10;;;0.83;;
4422;SDS011;2224;49.814;8.650;2023-05-10T00:04:43;2.27;;;1.10;;
4422;SDS011;2224;49.814;8.650;2023-05-10T00:07:08;1.40;;;0.90;;
4422;SDS011;2224;49.814;8.650;2023-05-10T00:09:35;1.10;;;1.00;;
4422;SDS011;2224;49.814;8.650;2023-05-10T00:12:00;1.13;;;0.90;;
4422;SDS011;2224;49.814;8.650;2023-05-10T00:14:25;1.17;;;1.07;;
4422;SDS011;2224;49.814;8.650;2023-05-10T00:16:51;1.90;;;1.30;;
4422;SDS011;2224;49.814;8.650;2023-05-10T00:19:16;1.80;;;1.20;;
4422;SDS011;2224;49.814;8.650;2023-05-10T00:21:42;1.20;;;1.10;;
4422;SDS011;2224;49.814;8.650;2023-05-10T00:24:07;1.30;;;1.20;;
4422;SDS011;2224;49.814;8.650;2023-05-10T00:26:32;2.50;;;1.53;;
4422;SDS011;2224;49.814;8.650;2023-05-10T00:28:58;2.80;;;1.23;;
4422;SDS011;2224;49.814;8.650;2023-05-10T00:31:23;1.60;;;1.50;;
4422;SDS011;2224;49.814;8.650;2023-05-10T00:33:48;1.73;;;1.63;;
4422;SDS011;2224;49.814;8.650;2023-05-10T00:36:14;4.07;;;1.80;;
4422;SDS011;2224;49.814;8.650;2023-05-10T00:38:39;1.47;;;1.37;;
4422;SDS011;2224;49.814;8.650;2023-05-10T00:41:05;3.40;;;2.00;;
4422;SDS011;2224;49.814;8.650;2023-05-10T00:43:30;2.60;;;1.70;;
4422;SDS011;2224;49.814;8.650;2023-05-10T00:45:56;2.70;;;2.10;;
4422;SDS011;2224;49.814;8.650;2023-05-10T00:48:21;3.40;;;2.70;;
4422;SDS011;2224;49.814;8.650;2023-05-10T00:50:47;2.80;;;2.60;;
4422;SDS011;2224;49.814;8.650;2023-05-10T00:53:12;2.70;;;2.50;;
4422;SDS011;2224;49.814;8.650;2023-05-10T00:55:38;2.43;;;2.17;;
4422;SDS011;2224;49.814;8.650;2023-05-10T00:58:04;4.10;;;2.33;;
4422;SDS011;2224;49.814;8.650;2023-05-10T01:00:29;3.43;;;3.13;;
4422;SDS011;2224;49.814;8.650;2023-05-10T01:02:55;2.50;;;2.30;;
4422;SDS011;2224;49.814;8.650;2023-05-10T01:05:20;2.53;;;2.33;;
4422;SDS011;2224;49.814;8.650;2023-05-10T01:07:45;7.70;;;2.43;;
4422;SDS011;2224;49.814;8.650;2023-05-10T01:10:11;2.60;;;2.40;;
4422;SDS011;2224;49.814;8.650;2023-05-10T01:12:37;2.90;;;2.37;;
4422;SDS011;2224;49.814;8.650;2023-05-10T01:15:06;3.20;;;2.90;;
4422;SDS011;2224;49.814;8.650;2023-05-10T01:17:33;4.60;;;2.43;;
4422;SDS011;2224;49.814;8.650;2023-05-10T01:20:00;2.93;;;2.73;;
4422;SDS011;2224;49.814;8.650;2023-05-10T01:25:11;2.87;;;2.67;;
4422;SDS011;2224;49.814;8.650;2023-05-10T01:28:07;2.70;;;2.50;;
4422;SDS011;2224;49.814;8.650;2023-05-10T01:33:35;5.63;;;3.73;;
4422;SDS011;2224;49.814;8.650;2023-05-10T01:41:40;4.67;;;4.20;;
4422;SDS011;2224;49.814;8.650;2023-05-10T01:47:14;4.70;;;4.20;;
4422;SDS011;2224;49.814;8.650;2023-05-10T01:49:43;4.60;;;4.20;;
4422;SDS011;2224;49.814;8.650;2023-05-10T01:52:15;4.30;;;4.00;;
4422;SDS011;2224;49.814;8.650;2023-05-10T01:54:48;5.70;;;4.63;;
4422;SDS011;2224;49.814;8.650;2023-05-10T01:57:15;5.07;;;4.40;;
4422;SDS011;2224;49.814;8.650;2023-05-10T01:59:42;5.77;;;4.67;;
4422;SDS011;2224;49.814;8.650;2023-05-10T02:02:08;6.00;;;5.40;;
4422;SDS011;2224;49.814;8.650;2023-05-10T02:04:38;5.73;;;5.23;;
4422;SDS011;2224;49.814;8.650;2023-05-10T02:07:04;4.70;;;4.30;;
4422;SDS011;2224;49.814;8.650;2023-05-10T02:09:31;5.10;;;4.47;;
4422;SDS011;2224;49.814;8.650;2023-05-10T02:11:57;5.10;;;4.60;;
4422;SDS011;2224;49.814;8.650;2023-05-10T02:14:23;5.53;;;4.13;;
4422;SDS011;2224;49.814;8.650;2023-05-10T02:16:50;4.70;;;4.30;;
4422;SDS011;2224;49.814;8.650;2023-05-10T02:19:15;5.67;;;5.17;;
4422;SDS011;2224;49.814;8.650;2023-05-10T02:21:42;5.30;;;4.80;;
4422;SDS011;2224;49.814;8.650;2023-05-10T02:24:08;5.37;;;4.87;;
4422;SDS011;2224;49.814;8.650;2023-05-10T02:26:34;5.40;;;4.63;;
4422;SDS011;2224;49.814;8.650;2023-05-10T02:29:00;5.50;;;4.87;;
4422;SDS011;2224;49.814;8.650;2023-05-10T02:31:28;5.33;;;4.83;;
4422;SDS011;2224;49.814;8.650;2023-05-10T02:33:54;5.33;;;4.83;;
4422;SDS011;2224;49.814;8.650;2023-05-10T02:36:19;6.43;;;5.83;;
4422;SDS011;2224;49.814;8.650;2023-05-10T02:38:47;5.37;;;4.27;;
4422;SDS011;2224;49.814;8.650;2023-05-10T02:41:13;5.77;;;5.23;;
4422;SDS011;2224;49.814;8.650;2023-05-10T02:43:39;8.00;;;5.20;;
4422;SDS011;2224;49.814;8.650;2023-05-10T02:46:05;6.00;;;4.90;;
4422;SDS011;2224;49.814;8.650;2023-05-10T02:48:30;5.80;;;5.20;;
4422;SDS011;2224;49.814;8.650;2023-05-10T02:50:56;7.50;;;5.47;;
4422;SDS011;2224;49.814;8.650;2023-05-10T02:53:32;5.70;;;5.10;;
4422;SDS011;2224;49.814;8.650;2023-05-10T02:56:00;6.30;;;5.70;;
4422;SDS011;2224;49.814;8.650;2023-05-10T02:58:28;5.63;;;5.13;;
4422;SDS011;2224;49.814;8.650;2023-05-10T03:00:54;6.50;;;5.17;;
4422;SDS011;2224;49.814;8.650;2023-05-10T03:03:19;5.10;;;4.70;;
4422;SDS011;2224;49.814;8.650;2023-05-10T03:05:44;6.13;;;4.93;;
4422;SDS011;2224;49.814;8.650;2023-05-10T03:08:10;5.10;;;4.70;;
4422;SDS011;2224;49.814;8.650;2023-05-10T03:10:38;5.93;;;5.30;;
4422;SDS011;2224;49.814;8.650;2023-05-10T03:13:35;5.63;;;5.13;;
4422;SDS011;2224;49.814;8.650;2023-05-10T03:16:08;6.13;;;5.53;;
4422;SDS011;2224;49.814;8.650;2023-05-10T03:18:48;5.10;;;4.60;;
4422;SDS011;2224;49.814;8.650;2023-05-10T03:21:16;6.70;;;5.00;;
4422;SDS011;2224;49.814;8.650;2023-05-10T03:23:43;7.17;;;6.30;;
4422;SDS011;2224;49.814;8.650;2023-05-10T03:26:13;6.10;;;5.50;;
4422;SDS011;2224;49.814;8.650;2023-05-10T03:28:42;6.33;;;5.50;;
4422;SDS011;2224;49.814;8.650;2023-05-10T03:31:08;6.90;;;5.20;;
4422;SDS011;2224;49.814;8.650;2023-05-10T03:33:34;7.13;;;6.20;;
4422;SDS011;2224;49.814;8.650;2023-05-10T03:35:59;7.10;;;6.40;;
4422;SDS011;2224;49.814;8.650;2023-05-10T03:38:25;6.47;;;5.87;;
4422;SDS011;2224;49.814;8.650;2023-05-10T03:40:50;6.87;;;5.80;;
4422;SDS011;2224;49.814;8.650;2023-05-10T03:43:15;5.37;;;4.87;;
4422;SDS011;2224;49.814;8.650;2023-05-10T03:45:40;5.67;;;5.17;;
4422;SDS011;2224;49.814;8.650;2023-05-10T03:48:06;6.13;;;5.53;;
4422;SDS011;2224;49.814;8.650;2023-05-10T03:50:31;5.87;;;5.23;;
4422;SDS011;2224;49.814;8.650;2023-05-10T03:52:56;5.60;;;5.10;;
4422;SDS011;2224;49.814;8.650;2023-05-10T03:55:22;6.10;;;4.90;;
4422;SDS011;2224;49.814;8.650;2023-05-10T03:57:48;5.27;;;4.77;;
4422;SDS011;2224;49.814;8.650;2023-05-10T04:00:14;5.63;;;4.90;;
4422;SDS011;2224;49.814;8.650;2023-05-10T04:02:40;5.43;;;4.77;;
4422;SDS011;2224;49.814;8.650;2023-05-10T04:05:05;5.43;;;4.93;;
4422;SDS011;2224;49.814;8.650;2023-05-10T04:07:31;8.07;;;5.73;;
4422;SDS011;2224;49.814;8.650;2023-05-10T04:09:56;6.17;;;5.47;;
4422;SDS011;2224;49.814;8.650;2023-05-10T04:12:22;6.90;;;6.20;;
4422;SDS011;2224;49.814;8.650;2023-05-10T04:14:47;6.87;;;5.70;;
4422;SDS011;2224;49.814;8.650;2023-05-10T04:17:12;6.60;;;6.00;;
4422;SDS011;2224;49.814;8.650;2023-05-10T04:19:38;7.43;;;5.33;;
4422;SDS011;2224;49.814;8.650;2023-05-10T04:22:03;6.83;;;6.23;;
4422;SDS011;2224;49.814;8.650;2023-05-10T04:24:28;11.83;;;7.10;;
4422;SDS011;2224;49.814;8.650;2023-05-10T04:26:54;6.80;;;6.10;;
4422;SDS011;2224;49.814;8.650;2023-05-10T04:29:21;6.80;;;5.77;;
4422;SDS011;2224;49.814;8.650;2023-05-10T04:31:46;8.57;;;6.70;;
4422;SDS011;2224;49.814;8.650;2023-05-10T04:34:11;6.10;;;5.60;;
4422;SDS011;2224;49.814;8.650;2023-05-10T04:36:37;6.90;;;6.20;;
4422;SDS011;2224;49.814;8.650;2023-05-10T04:39:02;7.30;;;6.57;;
4422;SDS011;2224;49.814;8.650;2023-05-10T04:41:28;7.30;;;6.57;;
4422;SDS011;2224;49.814;8.650;2023-05-10T04:43:53;8.43;;;6.53;;
4422;SDS011;2224;49.814;8.650;2023-05-10T04:46:19;8.50;;;7.03;;
4422;SDS011;2224;49.814;8.650;2023-05-10T04:48:44;6.93;;;6.33;;
4422;SDS011;2224;49.814;8.650;2023-05-10T04:51:09;6.53;;;5.93;;
4422;SDS011;2224;49.814;8.650;2023-05-10T04:53:34;8.10;;;6.37;;
4422;SDS011;2224;49.814;8.650;2023-05-10T04:56:00;7.50;;;6.80;;
4422;SDS011;2224;49.814;8.650;2023-05-10T04:58:26;7.50;;;6.70;;
4422;SDS011;2224;49.814;8.650;2023-05-10T05:00:51;9.93;;;7.20;;
4422;SDS011;2224;49.814;8.650;2023-05-10T05:03:16;8.83;;;7.30;;
4422;SDS011;2224;49.814;8.650;2023-05-10T05:05:42;7.47;;;6.77;;
4422;SDS011;2224;49.814;8.650;2023-05-10T05:08:08;10.10;;;6.87;;
4422;SDS011;2224;49.814;8.650;2023-05-10T05:10:33;7.77;;;6.70;;
4422;SDS011;2224;49.814;8.650;2023-05-10T05:12:59;7.13;;;6.43;;
4422;SDS011;2224;49.814;8.650;2023-05-10T05:15:24;7.20;;;6.50;;
4422;SDS011;2224;49.814;8.650;2023-05-10T05:17:49;6.97;;;6.10;;
4422;SDS011;2224;49.814;8.650;2023-05-10T05:20:15;7.93;;;7.20;;
4422;SDS011;2224;49.814;8.650;2023-05-10T05:22:40;6.80;;;5.70;;
4422;SDS011;2224;49.814;8.650;2023-05-10T05:25:06;6.73;;;6.13;;
4422;SDS011;2224;49.814;8.650;2023-05-10T05:27:32;7.33;;;6.60;;
4422;SDS011;2224;49.814;8.650;2023-05-10T05:29:58;6.97;;;5.97;;
4422;SDS011;2224;49.814;8.650;2023-05-10T05:32:23;7.03;;;5.50;;
4422;SDS011;2224;49.814;8.650;2023-05-10T05:34:49;7.00;;;5.50;;
4422;SDS011;2224;49.814;8.650;2023-05-10T05:37:15;5.77;;;5.27;;
4422;SDS011;2224;49.814;8.650;2023-05-10T05:39:42;7.27;;;5.80;;
4422;SDS011;2224;49.814;8.650;2023-05-10T05:42:07;7.03;;;5.60;;
4422;SDS011;2224;49.814;8.650;2023-05-10T05:44:33;11.00;;;7.00;;
4422;SDS011;2224;49.814;8.650;2023-05-10T05:46:59;6.97;;;6.27;;
4422;SDS011;2224;49.814;8.650;2023-05-10T05:49:24;5.80;;;5.30;;
4422;SDS011;2224;49.814;8.650;2023-05-10T05:51:49;7.23;;;5.63;;
4422;SDS011;2224;49.814;8.650;2023-05-10T05:54:15;7.47;;;6.10;;
4422;SDS011;2224;49.814;8.650;2023-05-10T05:56:40;7.27;;;6.23;;
4422;SDS011;2224;49.814;8.650;2023-05-10T05:59:05;7.03;;;6.40;;
4422;SDS011;2224;49.814;8.650;2023-05-10T06:01:31;7.10;;;6.20;;
4422;SDS011;2224;49.814;8.650;2023-05-10T06:03:56;8.47;;;6.20;;
4422;SDS011;2224;49.814;8.650;2023-05-10T06:06:21;7.83;;;6.30;;
4422;SDS011;2224;49.814;8.650;2023-05-10T06:08:47;7.17;;;6.50;;
4422;SDS011;2224;49.814;8.650;2023-05-10T06:11:12;7.33;;;6.20;;
4422;SDS011;2224;49.814;8.650;2023-05-10T06:13:37;7.63;;;5.53;;
4422;SDS011;2224;49.814;8.650;2023-05-10T06:16:03;6.27;;;5.70;;
4422;SDS011;2224;49.814;8.650;2023-05-10T06:18:28;9.40;;;6.03;;
4422;SDS011;2224;49.814;8.650;2023-05-10T06:20:53;7.53;;;6.07;;
4422;SDS011;2224;49.814;8.650;2023-05-10T06:23:19;8.73;;;6.43;;
4422;SDS011;2224;49.814;8.650;2023-05-10T06:25:44;6.40;;;5.80;;
4422;SDS011;2224;49.814;8.650;2023-05-10T06:28:09;9.17;;;6.87;;
4422;SDS011;2224;49.814;8.650;2023-05-10T06:30:35;8.23;;;7.40;;
4422;SDS011;2224;49.814;8.650;2023-05-10T06:33:01;8.10;;;7.30;;
4422;SDS011;2224;49.814;8.650;2023-05-10T06:35:26;7.97;;;7.10;;
4422;SDS011;2224;49.814;8.650;2023-05-10T06:37:51;7.07;;;6.47;;
4422;SDS011;2224;49.814;8.650;2023-05-10T06:40:17;9.50;;;7.10;;
4422;SDS011;2224;49.814;8.650;2023-05-10T06:42:43;8.93;;;7.73;;
4422;SDS011;2224;49.814;8.650;2023-05-10T06:45:09;7.57;;;6.87;;
4422;SDS011;2224;49.814;8.650;2023-05-10T06:47:35;7.73;;;7.03;;
4422;SDS011;2224;49.814;8.650;2023-05-10T06:50:00;8.13;;;7.33;;
4422;SDS011;2224;49.814;8.650;2023-05-10T06:52:26;8.70;;;7.80;;
4422;SDS011;2224;49.814;8.650;2023-05-10T06:54:51;8.23;;;7.43;;
4422;SDS011;2224;49.814;8.650;2023-05-10T06:57:17;8.30;;;7.50;;
4422;SDS011;2224;49.814;8.650;2023-05-10T06:59:43;9.80;;;8.80;;
4422;SDS011;2224;49.814;8.650;2023-05-10T07:02:08;8.27;;;7.37;;
4422;SDS011;2224;49.814;8.650;2023-05-10T07:04:33;8.20;;;7.33;;
4422;SDS011;2224;49.814;8.650;2023-05-10T07:06:59;8.60;;;7.80;;
4422;SDS011;2224;49.814;8.650;2023-05-10T07:09:24;8.80;;;7.90;;
4422;SDS011;2224;49.814;8.650;2023-05-10T07:11:50;9.77;;;8.33;;
4422;SDS011;2224;49.814;8.650;2023-05-10T07:14:15;8.20;;;7.40;;
4422;SDS011;2224;49.814;8.650;2023-05-10T07:16:40;8.80;;;7.90;;
4422;SDS011;2224;49.814;8.650;2023-05-10T07:19:05;9.23;;;8.33;;
4422;SDS011;2224;49.814;8.650;2023-05-10T07:21:31;8.10;;;7.30;;
4422;SDS011;2224;49.814;8.650;2023-05-10T07:23:57;11.43;;;8.07;;
4422;SDS011;2224;49.814;8.650;2023-05-10T07:26:22;8.80;;;7.90;;
4422;SDS011;2224;49.814;8.650;2023-05-10T07:28:48;8.17;;;7.33;;
4422;SDS011;2224;49.814;8.650;2023-05-10T07:31:14;7.27;;;6.63;;
4422;SDS011;2224;49.814;8.650;2023-05-10T07:33:39;8.10;;;7.30;;
4422;SDS011;2224;49.814;8.650;2023-05-10T07:36:05;7.93;;;7.13;;
4422;SDS011;2224;49.814;8.650;2023-05-10T07:38:30;8.47;;;7.30;;
4422;SDS011;2224;49.814;8.650;2023-05-10T07:40:55;7.50;;;6.33;;
4422;SDS011;2224;49.814;8.650;2023-05-10T07:43:21;6.13;;;5.47;;
4422;SDS011;2224;49.814;8.650;2023-05-10T07:45:46;7.37;;;6.67;;
4422;SDS011;2224;49.814;8.650;2023-05-10T07:48:11;6.67;;;6.07;;
4422;SDS011;2224;49.814;8.650;2023-05-10T07:50:37;6.90;;;6.20;;
4422;SDS011;2224;49.814;8.650;2023-05-10T07:53:02;6.80;;;6.17;;
4422;SDS011;2224;49.814;8.650;2023-05-10T07:55:27;6.60;;;5.90;;
4422;SDS011;2224;49.814;8.650;2023-05-10T07:57:52;9.23;;;6.57;;
4422;SDS011;2224;49.814;8.650;2023-05-10T08:00:18;6.27;;;5.67;;
4422;SDS011;2224;49.814;8.650;2023-05-10T08:02:44;6.43;;;5.83;;
4422;SDS011;2224;49.814;8.650;2023-05-10T08:05:10;11.50;;;6.40;;
4422;SDS011;2224;49.814;8.650;2023-05-10T08:07:35;6.50;;;5.80;;
4422;SDS011;2224;49.814;8.650;2023-05-10T08:10:01;6.20;;;5.53;;
4422;SDS011;2224;49.814;8.650;2023-05-10T08:12:27;5.90;;;5.30;;
4422;SDS011;2224;49.814;8.650;2023-05-10T08:14:52;5.23;;;4.73;;
4422;SDS011;2224;49.814;8.650;2023-05-10T08:17:17;5.27;;;4.70;;
4422;SDS011;2224;49.814;8.650;2023-05-10T08:19:43;6.20;;;5.07;;
4422;SDS011;2224;49.814;8.650;2023-05-10T08:22:08;5.53;;;5.07;;
4422;SDS011;2224;49.814;8.650;2023-05-10T08:24:33;5.27;;;4.87;;
4422;SDS011;2224;49.814;8.650;2023-05-10T08:27:03;7.60;;;6.70;;
4422;SDS011;2224;49.814;8.650;2023-05-10T08:29:28;7.67;;;6.87;;
4422;SDS011;2224;49.814;8.650;2023-05-10T08:31:53;6.60;;;6.00;;
4422;SDS011;2224;49.814;8.650;2023-05-10T08:34:19;6.40;;;5.80;;
4422;SDS011;2224;49.814;8.650;2023-05-10T08:36:45;6.10;;;5.60;;
4422;SDS011;2224;49.814;8.650;2023-05-10T08:39:10;5.90;;;5.40;;
4422;SDS011;2224;49.814;8.650;2023-05-10T08:41:36;8.43;;;6.10;;
4422;SDS011;2224;49.814;8.650;2023-05-10T08:44:04;6.47;;;5.87;;
4422;SDS011;2224;49.814;8.650;2023-05-10T08:46:30;6.10;;;5.50;;
4422;SDS011;2224;49.814;8.650;2023-05-10T08:48:56;6.67;;;6.00;;
4422;SDS011;2224;49.814;8.650;2023-05-10T08:51:23;6.03;;;5.53;;
4422;SDS011;2224;49.814;8.650;2023-05-10T08:53:51;7.17;;;6.40;;
4422;SDS011;2224;49.814;8.650;2023-05-10T08:56:17;5.97;;;5.47;;
4422;SDS011;2224;49.814;8.650;2023-05-10T08:58:42;6.67;;;5.80;;
4422;SDS011;2224;49.814;8.650;2023-05-10T09:01:08;6.10;;;5.53;;
4422;SDS011;2224;49.814;8.650;2023-05-10T09:03:34;4.90;;;4.50;;
4422;SDS011;2224;49.814;8.650;2023-05-10T09:06:00;5.00;;;4.60;;
4422;SDS011;2224;49.814;8.650;2023-05-10T09:08:25;5.07;;;4.40;;
4422;SDS011;2224;49.814;8.650;2023-05-10T09:10:51;8.03;;;4.20;;
4422;SDS011;2224;49.814;8.650;2023-05-10T09:13:17;3.73;;;3.43;;
4422;SDS011;2224;49.814;8.650;2023-05-10T09:15:44;6.50;;;3.53;;
4422;SDS011;2224;49.814;8.650;2023-05-10T09:18:09;3.63;;;3.33;;
4422;SDS011;2224;49.814;8.650;2023-05-10T09:20:35;3.23;;;3.03;;
4422;SDS011;2224;49.814;8.650;2023-05-10T09:23:00;3.47;;;3.17;;
4422;SDS011;2224;49.814;8.650;2023-05-10T09:25:25;3.17;;;2.87;;
4422;SDS011;2224;49.814;8.650;2023-05-10T09:27:51;2.90;;;2.70;;
4422;SDS011;2224;49.814;8.650;2023-05-10T09:30:27;5.43;;;3.13;;
4422;SDS011;2224;49.814;8.650;2023-05-10T09:32:56;3.70;;;2.80;;
4422;SDS011;2224;49.814;8.650;2023-05-10T09:35:23;3.10;;;2.80;;
4422;SDS011;2224;49.814;8.650;2023-05-10T09:37:51;4.23;;;2.70;;
4422;SDS011;2224;49.814;8.650;2023-05-10T09:40:19;3.10;;;2.20;;
4422;SDS011;2224;49.814;8.650;2023-05-10T09:43:03;2.40;;;2.20;;
4422;SDS011;2224;49.814;8.650;2023-05-10T09:45:31;1.90;;;1.70;;
4422;SDS011;2224;49.814;8.650;2023-05-10T09:47:57;3.10;;;2.20;;
4422;SDS011;2224;49.814;8.650;2023-05-10T09:50:24;2.50;;;2.30;;
4422;SDS011;2224;49.814;8.650;2023-05-10T09:52:50;2.00;;;1.90;;
4422;SDS011;2224;49.814;8.650;2023-05-10T09:55:17;3.33;;;2.50;;
4422;SDS011;2224;49.814;8.650;2023-05-10T09:57:43;2.20;;;2.00;;
4422;SDS011;2224;49.814;8.650;2023-05-10T10:00:09;2.63;;;2.13;;
4422;SDS011;2224;49.814;8.650;2023-05-10T10:02:35;2.20;;;2.10;;
4422;SDS011;2224;49.814;8.650;2023-05-10T10:05:01;3.60;;;1.97;;
4422;SDS011;2224;49.814;8.650;2023-05-10T10:07:28;2.00;;;1.90;;
4422;SDS011;2224;49.814;8.650;2023-05-10T10:09:54;3.13;;;1.77;;
4422;SDS011;2224;49.814;8.650;2023-05-10T10:12:20;2.20;;;2.00;;
4422;SDS011;2224;49.814;8.650;2023-05-10T10:14:46;2.50;;;2.30;;
4422;SDS011;2224;49.814;8.650;2023-05-10T10:17:12;2.37;;;2.17;;
4422;SDS011;2224;49.814;8.650;2023-05-10T10:19:38;5.00;;;2.50;;
4422;SDS011;2224;49.814;8.650;2023-05-10T10:22:03;2.10;;;1.77;;
4422;SDS011;2224;49.814;8.650;2023-05-10T10:24:29;32.17;;;4.87;;
4422;SDS011;2224;49.814;8.650;2023-05-10T10:26:55;2.30;;;2.10;;
4422;SDS011;2224;49.814;8.650;2023-05-10T10:32:18;4.47;;;2.63;;
4422;SDS011;2224;49.814;8.650;2023-05-10T10:34:47;2.60;;;2.40;;
4422;SDS011;2224;49.814;8.650;2023-05-10T10:37:12;1.77;;;1.67;;
4422;SDS011;2224;49.814;8.650;2023-05-10T10:39:38;2.27;;;2.00;;
4422;SDS011;2224;49.814;8.650;2023-05-10T10:42:03;3.57;;;1.87;;
4422;SDS011;2224;49.814;8.650;2023-05-10T10:47:09;1.90;;;1.80;;
4422;SDS011;2224;49.814;8.650;2023-05-10T10:55:38;4.33;;;1.77;;
4422;SDS011;2224;49.814;8.650;2023-05-10T10:57:57;2.23;;;1.80;;
4422;SDS011;2224;49.814;8.650;2023-05-10T11:03:04;2.37;;;1.70;;
4422;SDS011;2224;49.814;8.650;2023-05-10T11:05:44;1.70;;;1.60;;
4422;SDS011;2224;49.814;8.650;2023-05-10T11:08:26;2.10;;;1.80;;
4422;SDS011;2224;49.814;8.650;2023-05-10T11:13:28;1.50;;;1.40;;
4422;SDS011;2224;49.814;8.650;2023-05-10T11:15:54;2.80;;;1.73;;
4422;SDS011;2224;49.814;8.650;2023-05-10T11:18:23;2.33;;;2.07;;
4422;SDS011;2224;49.814;8.650;2023-05-10T11:20:57;1.70;;;1.60;;
4422;SDS011;2224;49.814;8.650;2023-05-10T11:23:29;1.87;;;1.70;;
4422;SDS011;2224;49.814;8.650;2023-05-10T11:26:16;2.07;;;1.67;;
4422;SDS011;2224;49.814;8.650;2023-05-10T11:28:48;4.50;;;2.30;;
4422;SDS011;2224;49.814;8.650;2023-05-10T11:31:17;2.33;;;1.73;;
4422;SDS011;2224;49.814;8.650;2023-05-10T11:33:47;2.97;;;1.73;;
4422;SDS011;2224;49.814;8.650;2023-05-10T11:36:17;1.83;;;1.73;;
4422;SDS011;2224;49.814;8.650;2023-05-10T11:38:44;2.20;;;1.63;;
4422;SDS011;2224;49.814;8.650;2023-05-10T11:41:10;2.87;;;1.63;;
4422;SDS011;2224;49.814;8.650;2023-05-10T11:43:36;2.47;;;1.80;;
4422;SDS011;2224;49.814;8.650;2023-05-10T11:46:03;2.50;;;1.33;;
4422;SDS011;2224;49.814;8.650;2023-05-10T11:48:30;1.27;;;1.17;;
4422;SDS011;2224;49.814;8.650;2023-05-10T11:50:56;2.17;;;1.20;;
4422;SDS011;2224;49.814;8.650;2023-05-10T11:53:22;1.43;;;1.33;;
4422;SDS011;2224;49.814;8.650;2023-05-10T11:55:48;2.17;;;1.50;;
4422;SDS011;2224;49.814;8.650;2023-05-10T11:58:13;1.53;;;1.10;;
4422;SDS011;2224;49.814;8.650;2023-05-10T12:00:38;1.43;;;1.33;;
4422;SDS011;2224;49.814;8.650;2023-05-10T12:03:04;1.20;;;1.10;;
4422;SDS011;2224;49.814;8.650;2023-05-10T12:05:31;1.83;;;1.43;;
4422;SDS011;2224;49.814;8.650;2023-05-10T12:08:13;2.20;;;1.27;;
4422;SDS011;2224;49.814;8.650;2023-05-10T12:10:39;1.00;;;1.00;;
4422;SDS011;2224;49.814;8.650;2023-05-10T12:13:04;1.30;;;1.20;;
4422;SDS011;2224;49.814;8.650;2023-05-10T12:15:30;1.50;;;1.13;;
4422;SDS011;2224;49.814;8.650;2023-05-10T12:17:55;2.47;;;1.43;;
4422;SDS011;2224;49.814;8.650;2023-05-10T12:20:23;2.20;;;1.73;;
4422;SDS011;2224;49.814;8.650;2023-05-10T12:22:52;2.03;;;1.60;;
4422;SDS011;2224;49.814;8.650;2023-05-10T12:25:20;1.57;;;1.33;;
4422;SDS011;2224;49.814;8.650;2023-05-10T12:27:55;1.50;;;1.40;;
4422;SDS011;2224;49.814;8.650;2023-05-10T12:32:47;1.20;;;1.10;;
4422;SDS011;2224;49.814;8.650;2023-05-10T12:35:12;2.07;;;1.20;;
4422;SDS011;2224;49.814;8.650;2023-05-10T12:37:37;1.67;;;1.20;;
4422;SDS011;2224;49.814;8.650;2023-05-10T12:40:06;2.60;;;1.17;;
4422;SDS011;2224;49.814;8.650;2023-05-10T12:42:33;1.80;;;1.03;;
4422;SDS011;2224;49.814;8.650;2023-05-10T12:44:59;5.00;;;1.33;;
4422;SDS011;2224;49.814;8.650;2023-05-10T12:47:24;1.30;;;1.20;;
4422;SDS011;2224;49.814;8.650;2023-05-10T12:49:49;1.97;;;1.77;;
4422;SDS011;2224;49.814;8.650;2023-05-10T12:52:16;2.00;;;1.07;;
4422;SDS011;2224;49.814;8.650;2023-05-10T12:54:41;3.03;;;1.47;;
4422;SDS011;2224;49.814;8.650;2023-05-10T12:57:06;3.17;;;1.40;;
4422;SDS011;2224;49.814;8.650;2023-05-10T12:59:32;3.43;;;1.60;;
4422;SDS011;2224;49.814;8.650;2023-05-10T13:01:57;2.10;;;1.90;;
4422;SDS011;2224;49.814;8.650;2023-05-10T13:04:22;1.80;;;1.67;;
4422;SDS011;2224;49.814;8.650;2023-05-10T13:06:48;1.77;;;1.67;;
4422;SDS011;2224;49.814;8.650;2023-05-10T13:09:13;2.17;;;2.00;;
4422;SDS011;2224;49.814;8.650;2023-05-10T13:11:38;2.00;;;1.83;;
4422;SDS011;2224;49.814;8.650;2023-05-10T13:14:04;2.70;;;1.70;;
4422;SDS011;2224;49.814;8.650;2023-05-10T13:16:29;3.53;;;1.70;;
4422;SDS011;2224;49.814;8.650;2023-05-10T13:18:55;2.03;;;1.93;;
4422;SDS011;2224;49.814;8.650;2023-05-10T13:21:20;7.13;;;2.33;;
4422;SDS011;2224;49.814;8.650;2023-05-10T13:23:46;2.70;;;1.80;;
4422;SDS011;2224;49.814;8.650;2023-05-10T13:26:11;3.20;;;1.90;;
4422;SDS011;2224;49.814;8.650;2023-05-10T13:28:37;2.00;;;1.80;;
4422;SDS011;2224;49.814;8.650;2023-05-10T13:31:03;4.33;;;1.97;;
4422;SDS011;2224;49.814;8.650;2023-05-10T13:33:29;1.87;;;1.67;;
4422;SDS011;2224;49.814;8.650;2023-05-10T13:35:55;1.50;;;1.33;;
4422;SDS011;2224;49.814;8.650;2023-05-10T13:38:20;1.50;;;1.40;;
4422;SDS011;2224;49.814;8.650;2023-05-10T13:40:45;3.00;;;1.67;;
4422;SDS011;2224;49.814;8.650;2023-05-10T13:43:11;3.37;;;1.50;;
4422;SDS011;2224;49.814;8.650;2023-05-10T13:45:36;3.97;;;1.60;;
4422;SDS011;2224;49.814;8.650;2023-05-10T13:48:01;5.20;;;2.13;;
4422;SDS011;2224;49.814;8.650;2023-05-10T13:50:27;2.13;;;1.50;;
4422;SDS011;2224;49.814;8.650;2023-05-10T13:52:52;2.40;;;1.73;;
4422;SDS011;2224;49.814;8.650;2023-05-10T13:55:17;2.63;;;1.50;;
4422;SDS011;2224;49.814;8.650;2023-05-10T13:57:43;2.83;;;1.70;;
4422;SDS011;2224;49.814;8.650;2023-05-10T14:00:08;2.93;;;1.80;;
4422;SDS011;2224;49.814;8.650;2023-05-10T14:02:34;4.27;;;1.50;;
4422;SDS011;2224;49.814;8.650;2023-05-10T14:04:59;3.17;;;1.87;;
4422;SDS011;2224;49.814;8.650;2023-05-10T14:07:25;2.50;;;2.10;;
4422;SDS011;2224;49.814;8.650;2023-05-10T14:09:50;1.80;;;1.60;;
4422;SDS011;2224;49.814;8.650;2023-05-10T14:12:16;1.90;;;1.40;;
4422;SDS011;2224;49.814;8.650;2023-05-10T14:14:41;2.00;;;1.80;;
4422;SDS011;2224;49.814;8.650;2023-05-10T14:17:07;3.30;;;1.90;;
4422;SDS011;2224;49.814;8.650;2023-05-10T14:19:32;2.37;;;1.67;;
4422;SDS011;2224;49.814;8.650;2023-05-10T14:21:59;5.83;;;2.13;;
4422;SDS011;2224;49.814;8.650;2023-05-10T14:24:24;5.73;;;1.80;;
4422;SDS011;2224;49.814;8.650;2023-05-10T14:26:49;2.30;;;1.80;;
4422;SDS011;2224;49.814;8.650;2023-05-10T14:29:18;3.77;;;1.63;;
4422;SDS011;2224;49.814;8.650;2023-05-10T14:31:44;2.57;;;1.70;;
4422;SDS011;2224;49.814;8.650;2023-05-10T14:34:09;2.37;;;1.90;;
4422;SDS011;2224;49.814;8.650;2023-05-10T14:36:34;2.77;;;1.70;;
4422;SDS011;2224;49.814;8.650;2023-05-10T14:39:00;3.70;;;1.97;;
4422;SDS011;2224;49.814;8.650;2023-05-10T14:41:25;3.23;;;1.80;;
4422;SDS011;2224;49.814;8.650;2023-05-10T14:43:50;7.63;;;1.73;;
4422;SDS011;2224;49.814;8.650;2023-05-10T14:46:16;2.90;;;1.77;;
4422;SDS011;2224;49.814;8.650;2023-05-10T14:48:42;2.90;;;2.03;;
4422;SDS011;2224;49.814;8.650;2023-05-10T14:51:08;1.40;;;1.30;;
4422;SDS011;2224;49.814;8.650;2023-05-10T14:53:33;1.60;;;1.37;;
4422;SDS011;2224;49.814;8.650;2023-05-10T14:55:58;1.50;;;1.40;;
4422;SDS011;2224;49.814;8.650;2023-05-10T14:58:26;3.17;;;1.37;;
4422;SDS011;2224;49.814;8.650;2023-05-10T15:00:51;1.83;;;1.30;;
4422;SDS011;2224;49.814;8.650;2023-05-10T15:03:17;1.90;;;1.33;;
4422;SDS011;2224;49.814;8.650;2023-05-10T15:05:42;1.50;;;1.33;;
4422;SDS011;2224;49.814;8.650;2023-05-10T15:08:08;2.30;;;1.47;;
4422;SDS011;2224;49.814;8.650;2023-05-10T15:10:34;6.33;;;1.63;;
4422;SDS011;2224;49.814;8.650;2023-05-10T15:13:00;1.67;;;1.30;;
4422;SDS011;2224;49.814;8.650;2023-05-10T15:15:25;2.23;;;1.47;;
4422;SDS011;2224;49.814;8.650;2023-05-10T15:17:52;2.50;;;1.40;;
4422;SDS011;2224;49.814;8.650;2023-05-10T15:20:17;2.10;;;1.80;;
4422;SDS011;2224;49.814;8.650;2023-05-10T15:22:42;5.47;;;1.40;;
4422;SDS011;2224;49.814;8.650;2023-05-10T15:25:08;3.37;;;1.57;;
4422;SDS011;2224;49.814;8.650;2023-05-10T15:27:34;3.17;;;1.60;;
4422;SDS011;2224;49.814;8.650;2023-05-10T15:30:00;6.50;;;1.30;;
4422;SDS011;2224;49.814;8.650;2023-05-10T15:32:25;2.80;;;1.50;;
4422;SDS011;2224;49.814;8.650;2023-05-10T15:34:51;3.93;;;1.63;;
4422;SDS011;2224;49.814;8.650;2023-05-10T15:37:16;1.97;;;1.57;;
4422;SDS011;2224;49.814;8.650;2023-05-10T15:39:41;2.00;;;1.30;;
4422;SDS011;2224;49.814;8.650;2023-05-10T15:42:07;2.90;;;1.40;;
4422;SDS011;2224;49.814;8.650;2023-05-10T15:44:32;3.13;;;1.47;;